METAR Data
IDs: Format: Raw Decoded Include TAF

Data at: 1508 UTC 26 Sep 2021

KHWD 261454Z 27004KT 10SM OVC016 16/12 A3002 RMK AO2 SLP175 T01560117 51006
No TAF found for KHWD

KBFL 261454Z 14003KT 5SM HZ FU CLR 19/10 A2998 RMK AO2 SLP148 T01940100 53014

KBFL 261120Z 2612/2712 VRB06KT 6SM HZ FU SCT020

KIFP 261451Z 00000KT 10SM SCT150 24/12 A2993

KIFP 261120Z 2612/2712 18009KT P6SM BKN120
  FM270000 16010KT P6SM BKN120
  PROB30 2701/2705 VRB11G21KT P6SM TSRA BKN120CB
  FM270600 VRB06KT P6SM FEW150